sensor_id;sensor_type;location;lat;lon;timestamp;P1;durP1;ratioP1;P2;durP2;ratioP2
57573;SDS011;68988;49.000;21.242;2024-03-08T00:01:47;8.57;;;7.97;;
57573;SDS011;68988;49.000;21.242;2024-03-08T00:04:12;9.40;;;8.70;;
57573;SDS011;68988;49.000;21.242;2024-03-08T00:06:38;8.00;;;7.60;;
57573;SDS011;68988;49.000;21.242;2024-03-08T00:09:04;8.20;;;7.40;;
57573;SDS011;68988;49.000;21.242;2024-03-08T00:11:32;8.52;;;7.93;;
57573;SDS011;68988;49.000;21.242;2024-03-08T00:13:58;8.10;;;7.60;;
57573;SDS011;68988;49.000;21.242;2024-03-08T00:16:23;7.93;;;7.43;;
57573;SDS011;68988;49.000;21.242;2024-03-08T00:18:49;8.30;;;7.80;;
57573;SDS011;68988;49.000;21.242;2024-03-08T00:21:14;7.80;;;7.20;;
57573;SDS011;68988;49.000;21.242;2024-03-08T00:23:40;8.88;;;8.05;;
57573;SDS011;68988;49.000;21.242;2024-03-08T00:26:05;7.65;;;7.15;;
57573;SDS011;68988;49.000;21.242;2024-03-08T00:28:31;8.30;;;7.80;;
57573;SDS011;68988;49.000;21.242;2024-03-08T00:30:56;7.97;;;7.45;;
57573;SDS011;68988;49.000;21.242;2024-03-08T00:33:22;8.27;;;7.78;;
57573;SDS011;68988;49.000;21.242;2024-03-08T00:35:47;7.82;;;7.32;;
57573;SDS011;68988;49.000;21.242;2024-03-08T00:38:13;7.85;;;7.35;;
57573;SDS011;68988;49.000;21.242;2024-03-08T00:40:38;7.78;;;7.28;;
57573;SDS011;68988;49.000;21.242;2024-03-08T00:43:05;8.48;;;7.97;;
57573;SDS011;68988;49.000;21.242;2024-03-08T00:45:31;7.97;;;7.45;;
57573;SDS011;68988;49.000;21.242;2024-03-08T00:47:56;7.65;;;7.22;;
57573;SDS011;68988;49.000;21.242;2024-03-08T00:50:21;8.38;;;7.78;;
57573;SDS011;68988;49.000;21.242;2024-03-08T00:52:47;7.97;;;7.47;;
57573;SDS011;68988;49.000;21.242;2024-03-08T00:55:12;8.00;;;7.50;;
57573;SDS011;68988;49.000;21.242;2024-03-08T00:57:38;8.82;;;8.10;;
57573;SDS011;68988;49.000;21.242;2024-03-08T01:00:04;7.85;;;7.40;;
57573;SDS011;68988;49.000;21.242;2024-03-08T01:02:34;8.77;;;8.15;;
57573;SDS011;68988;49.000;21.242;2024-03-08T01:05:00;8.38;;;7.88;;
57573;SDS011;68988;49.000;21.242;2024-03-08T01:07:26;8.43;;;7.93;;
57573;SDS011;68988;49.000;21.242;2024-03-08T01:09:51;8.77;;;8.02;;
57573;SDS011;68988;49.000;21.242;2024-03-08T01:12:17;8.43;;;7.82;;
57573;SDS011;68988;49.000;21.242;2024-03-08T01:14:42;8.93;;;8.23;;
57573;SDS011;68988;49.000;21.242;2024-03-08T01:17:08;8.10;;;7.60;;
57573;SDS011;68988;49.000;21.242;2024-03-08T01:19:34;8.93;;;8.35;;
57573;SDS011;68988;49.000;21.242;2024-03-08T01:22:00;16.50;;;7.57;;
57573;SDS011;68988;49.000;21.242;2024-03-08T01:24:25;7.97;;;7.47;;
57573;SDS011;68988;49.000;21.242;2024-03-08T01:26:51;8.35;;;7.82;;
57573;SDS011;68988;49.000;21.242;2024-03-08T01:29:16;8.68;;;8.10;;
57573;SDS011;68988;49.000;21.242;2024-03-08T01:31:42;8.18;;;7.68;;
57573;SDS011;68988;49.000;21.242;2024-03-08T01:34:07;8.40;;;7.90;;
57573;SDS011;68988;49.000;21.242;2024-03-08T01:36:32;7.95;;;7.50;;
57573;SDS011;68988;49.000;21.242;2024-03-08T01:38:58;7.75;;;7.25;;
57573;SDS011;68988;49.000;21.242;2024-03-08T01:41:23;8.75;;;8.15;;
57573;SDS011;68988;49.000;21.242;2024-03-08T01:43:49;8.25;;;7.75;;
57573;SDS011;68988;49.000;21.242;2024-03-08T01:46:17;8.48;;;7.72;;
57573;SDS011;68988;49.000;21.242;2024-03-08T01:48:44;8.07;;;7.50;;
57573;SDS011;68988;49.000;21.242;2024-03-08T01:51:10;8.48;;;7.88;;
57573;SDS011;68988;49.000;21.242;2024-03-08T01:53:37;7.97;;;7.47;;
57573;SDS011;68988;49.000;21.242;2024-03-08T01:56:03;8.32;;;7.82;;
57573;SDS011;68988;49.000;21.242;2024-03-08T01:58:30;7.63;;;7.13;;
57573;SDS011;68988;49.000;21.242;2024-03-08T02:00:58;8.18;;;7.68;;
57573;SDS011;68988;49.000;21.242;2024-03-08T02:03:24;8.10;;;7.68;;
57573;SDS011;68988;49.000;21.242;2024-03-08T02:05:50;7.95;;;7.50;;
57573;SDS011;68988;49.000;21.242;2024-03-08T02:08:16;8.52;;;7.82;;
57573;SDS011;68988;49.000;21.242;2024-03-08T02:10:45;8.93;;;8.32;;
57573;SDS011;68988;49.000;21.242;2024-03-08T02:13:11;8.38;;;7.85;;
57573;SDS011;68988;49.000;21.242;2024-03-08T02:16:10;8.23;;;7.82;;
57573;SDS011;68988;49.000;21.242;2024-03-08T02:18:29;8.40;;;7.90;;
57573;SDS011;68988;49.000;21.242;2024-03-08T02:21:00;9.00;;;8.50;;
57573;SDS011;68988;49.000;21.242;2024-03-08T02:23:29;8.45;;;7.85;;
57573;SDS011;68988;49.000;21.242;2024-03-08T02:25:55;8.27;;;7.70;;
57573;SDS011;68988;49.000;21.242;2024-03-08T02:28:21;8.05;;;7.55;;
57573;SDS011;68988;49.000;21.242;2024-03-08T02:30:48;8.88;;;8.27;;
57573;SDS011;68988;49.000;21.242;2024-03-08T02:33:14;9.07;;;8.23;;
57573;SDS011;68988;49.000;21.242;2024-03-08T02:35:46;8.10;;;7.63;;
57573;SDS011;68988;49.000;21.242;2024-03-08T02:38:15;8.35;;;7.75;;
57573;SDS011;68988;49.000;21.242;2024-03-08T02:40:43;8.82;;;8.25;;
57573;SDS011;68988;49.000;21.242;2024-03-08T02:43:10;8.00;;;7.50;;
57573;SDS011;68988;49.000;21.242;2024-03-08T02:45:36;8.38;;;7.88;;
57573;SDS011;68988;49.000;21.242;2024-03-08T02:48:01;8.32;;;7.82;;
57573;SDS011;68988;49.000;21.242;2024-03-08T02:50:27;8.02;;;7.63;;
57573;SDS011;68988;49.000;21.242;2024-03-08T02:52:53;8.65;;;8.05;;
57573;SDS011;68988;49.000;21.242;2024-03-08T02:55:18;7.72;;;7.32;;
57573;SDS011;68988;49.000;21.242;2024-03-08T02:57:45;7.88;;;7.38;;
57573;SDS011;68988;49.000;21.242;2024-03-08T03:00:12;8.05;;;7.40;;
57573;SDS011;68988;49.000;21.242;2024-03-08T03:02:38;7.78;;;7.28;;
57573;SDS011;68988;49.000;21.242;2024-03-08T03:05:04;8.20;;;7.70;;
57573;SDS011;68988;49.000;21.242;2024-03-08T03:07:31;8.48;;;7.97;;
57573;SDS011;68988;49.000;21.242;2024-03-08T03:09:59;8.05;;;7.55;;
57573;SDS011;68988;49.000;21.242;2024-03-08T03:12:28;7.78;;;7.38;;
57573;SDS011;68988;49.000;21.242;2024-03-08T03:14:54;8.38;;;7.88;;
57573;SDS011;68988;49.000;21.242;2024-03-08T03:17:19;8.05;;;7.32;;
57573;SDS011;68988;49.000;21.242;2024-03-08T03:19:45;8.70;;;8.05;;
57573;SDS011;68988;49.000;21.242;2024-03-08T03:22:11;8.20;;;7.55;;
57573;SDS011;68988;49.000;21.242;2024-03-08T03:24:37;8.23;;;7.82;;
57573;SDS011;68988;49.000;21.242;2024-03-08T03:27:03;8.20;;;7.70;;
57573;SDS011;68988;49.000;21.242;2024-03-08T03:29:35;8.30;;;7.50;;
57573;SDS011;68988;49.000;21.242;2024-03-08T03:32:01;8.45;;;7.55;;
57573;SDS011;68988;49.000;21.242;2024-03-08T03:34:29;8.43;;;7.97;;
57573;SDS011;68988;49.000;21.242;2024-03-08T03:36:55;7.80;;;7.30;;
57573;SDS011;68988;49.000;21.242;2024-03-08T03:39:21;8.55;;;7.85;;
57573;SDS011;68988;49.000;21.242;2024-03-08T03:41:47;8.00;;;7.47;;
57573;SDS011;68988;49.000;21.242;2024-03-08T03:44:17;7.40;;;7.00;;
57573;SDS011;68988;49.000;21.242;2024-03-08T03:46:43;8.05;;;7.55;;
57573;SDS011;68988;49.000;21.242;2024-03-08T03:49:11;7.97;;;7.38;;
57573;SDS011;68988;49.000;21.242;2024-03-08T03:51:37;8.65;;;8.10;;
57573;SDS011;68988;49.000;21.242;2024-03-08T03:54:02;7.80;;;7.30;;
57573;SDS011;68988;49.000;21.242;2024-03-08T03:56:28;8.68;;;8.18;;
57573;SDS011;68988;49.000;21.242;2024-03-08T03:58:55;8.20;;;7.70;;
57573;SDS011;68988;49.000;21.242;2024-03-08T04:01:21;8.45;;;7.88;;
57573;SDS011;68988;49.000;21.242;2024-03-08T04:03:46;8.63;;;8.05;;
57573;SDS011;68988;49.000;21.242;2024-03-08T04:06:12;7.53;;;7.13;;
57573;SDS011;68988;49.000;21.242;2024-03-08T04:08:37;8.30;;;7.47;;
57573;SDS011;68988;49.000;21.242;2024-03-08T04:11:03;7.93;;;7.35;;
57573;SDS011;68988;49.000;21.242;2024-03-08T04:13:28;8.27;;;7.78;;
57573;SDS011;68988;49.000;21.242;2024-03-08T04:15:54;8.23;;;7.72;;
57573;SDS011;68988;49.000;21.242;2024-03-08T04:18:19;8.20;;;7.50;;
57573;SDS011;68988;49.000;21.242;2024-03-08T04:20:45;7.53;;;7.13;;
57573;SDS011;68988;49.000;21.242;2024-03-08T04:23:10;7.93;;;7.43;;
57573;SDS011;68988;49.000;21.242;2024-03-08T04:25:36;7.45;;;7.05;;
57573;SDS011;68988;49.000;21.242;2024-03-08T04:28:01;8.45;;;7.70;;
57573;SDS011;68988;49.000;21.242;2024-03-08T04:30:26;9.10;;;8.23;;
57573;SDS011;68988;49.000;21.242;2024-03-08T04:32:53;8.13;;;7.63;;
57573;SDS011;68988;49.000;21.242;2024-03-08T04:35:19;8.07;;;7.60;;
57573;SDS011;68988;49.000;21.242;2024-03-08T04:37:45;8.18;;;7.68;;
57573;SDS011;68988;49.000;21.242;2024-03-08T04:40:11;7.75;;;7.25;;
57573;SDS011;68988;49.000;21.242;2024-03-08T04:42:37;8.27;;;7.68;;
57573;SDS011;68988;49.000;21.242;2024-03-08T04:45:04;7.80;;;7.35;;
57573;SDS011;68988;49.000;21.242;2024-03-08T04:47:29;8.90;;;8.20;;
57573;SDS011;68988;49.000;21.242;2024-03-08T04:49:55;8.90;;;8.40;;
57573;SDS011;68988;49.000;21.242;2024-03-08T04:52:22;7.93;;;7.43;;
57573;SDS011;68988;49.000;21.242;2024-03-08T04:54:47;7.55;;;6.90;;
57573;SDS011;68988;49.000;21.242;2024-03-08T04:57:13;7.95;;;7.28;;
57573;SDS011;68988;49.000;21.242;2024-03-08T04:59:38;7.82;;;7.22;;
57573;SDS011;68988;49.000;21.242;2024-03-08T05:02:04;7.30;;;6.90;;
57573;SDS011;68988;49.000;21.242;2024-03-08T05:04:30;7.82;;;7.32;;
57573;SDS011;68988;49.000;21.242;2024-03-08T05:06:55;7.95;;;7.45;;
57573;SDS011;68988;49.000;21.242;2024-03-08T05:09:21;7.88;;;7.47;;
57573;SDS011;68988;49.000;21.242;2024-03-08T05:11:46;7.97;;;7.47;;
57573;SDS011;68988;49.000;21.242;2024-03-08T05:14:12;7.50;;;7.07;;
57573;SDS011;68988;49.000;21.242;2024-03-08T05:16:44;7.45;;;7.05;;
57573;SDS011;68988;49.000;21.242;2024-03-08T05:19:13;7.65;;;7.25;;
57573;SDS011;68988;49.000;21.242;2024-03-08T05:21:41;7.75;;;7.15;;
57573;SDS011;68988;49.000;21.242;2024-03-08T05:24:07;8.05;;;7.45;;
57573;SDS011;68988;49.000;21.242;2024-03-08T05:26:35;7.35;;;6.95;;
57573;SDS011;68988;49.000;21.242;2024-03-08T05:29:00;8.25;;;7.75;;
57573;SDS011;68988;49.000;21.242;2024-03-08T05:31:25;7.72;;;7.32;;
57573;SDS011;68988;49.000;21.242;2024-03-08T05:33:51;7.57;;;6.97;;
57573;SDS011;68988;49.000;21.242;2024-03-08T05:36:16;7.50;;;7.00;;
57573;SDS011;68988;49.000;21.242;2024-03-08T05:38:45;8.20;;;7.43;;
57573;SDS011;68988;49.000;21.242;2024-03-08T05:41:10;7.47;;;7.07;;
57573;SDS011;68988;49.000;21.242;2024-03-08T05:43:40;7.57;;;7.00;;
57573;SDS011;68988;49.000;21.242;2024-03-08T05:46:05;7.50;;;7.00;;
57573;SDS011;68988;49.000;21.242;2024-03-08T05:48:31;7.80;;;7.40;;
57573;SDS011;68988;49.000;21.242;2024-03-08T05:51:02;16.08;;;13.90;;
57573;SDS011;68988;49.000;21.242;2024-03-08T05:53:27;26.88;;;13.15;;
57573;SDS011;68988;49.000;21.242;2024-03-08T05:55:55;13.13;;;10.93;;
57573;SDS011;68988;49.000;21.242;2024-03-08T05:58:21;12.93;;;11.02;;
57573;SDS011;68988;49.000;21.242;2024-03-08T06:00:46;10.32;;;9.73;;
57573;SDS011;68988;49.000;21.242;2024-03-08T06:03:11;16.13;;;10.40;;
57573;SDS011;68988;49.000;21.242;2024-03-08T06:05:36;11.23;;;10.32;;
57573;SDS011;68988;49.000;21.242;2024-03-08T06:08:06;11.98;;;9.27;;
57573;SDS011;68988;49.000;21.242;2024-03-08T06:10:32;11.20;;;9.00;;
57573;SDS011;68988;49.000;21.242;2024-03-08T06:12:58;10.20;;;9.25;;
57573;SDS011;68988;49.000;21.242;2024-03-08T06:15:24;9.95;;;9.05;;
57573;SDS011;68988;49.000;21.242;2024-03-08T06:17:50;9.88;;;9.25;;
57573;SDS011;68988;49.000;21.242;2024-03-08T06:20:17;9.45;;;8.90;;
57573;SDS011;68988;49.000;21.242;2024-03-08T06:22:43;9.15;;;8.48;;
57573;SDS011;68988;49.000;21.242;2024-03-08T06:25:10;9.82;;;8.88;;
57573;SDS011;68988;49.000;21.242;2024-03-08T06:27:39;9.25;;;8.60;;
57573;SDS011;68988;49.000;21.242;2024-03-08T06:30:07;10.43;;;9.38;;
57573;SDS011;68988;49.000;21.242;2024-03-08T06:32:34;10.73;;;8.48;;
57573;SDS011;68988;49.000;21.242;2024-03-08T06:35:01;9.88;;;9.00;;
57573;SDS011;68988;49.000;21.242;2024-03-08T06:37:27;9.25;;;8.35;;
57573;SDS011;68988;49.000;21.242;2024-03-08T06:39:53;9.75;;;8.82;;
57573;SDS011;68988;49.000;21.242;2024-03-08T06:42:20;8.85;;;8.25;;
57573;SDS011;68988;49.000;21.242;2024-03-08T06:44:45;8.57;;;7.78;;
57573;SDS011;68988;49.000;21.242;2024-03-08T06:47:14;9.13;;;8.25;;
57573;SDS011;68988;49.000;21.242;2024-03-08T06:49:41;8.65;;;8.02;;
57573;SDS011;68988;49.000;21.242;2024-03-08T06:52:09;8.82;;;8.23;;
57573;SDS011;68988;49.000;21.242;2024-03-08T06:54:36;8.70;;;7.80;;
57573;SDS011;68988;49.000;21.242;2024-03-08T06:57:05;8.35;;;7.70;;
57573;SDS011;68988;49.000;21.242;2024-03-08T06:59:31;8.30;;;7.80;;
57573;SDS011;68988;49.000;21.242;2024-03-08T07:01:56;8.63;;;7.72;;
57573;SDS011;68988;49.000;21.242;2024-03-08T07:04:22;8.45;;;7.95;;
57573;SDS011;68988;49.000;21.242;2024-03-08T07:06:51;8.77;;;7.88;;
57573;SDS011;68988;49.000;21.242;2024-03-08T07:09:16;8.05;;;7.43;;
57573;SDS011;68988;49.000;21.242;2024-03-08T07:11:42;8.02;;;7.35;;
57573;SDS011;68988;49.000;21.242;2024-03-08T07:14:08;8.25;;;7.55;;
57573;SDS011;68988;49.000;21.242;2024-03-08T07:16:33;10.20;;;6.95;;
57573;SDS011;68988;49.000;21.242;2024-03-08T07:19:00;7.85;;;7.25;;
57573;SDS011;68988;49.000;21.242;2024-03-08T07:21:26;8.02;;;7.20;;
57573;SDS011;68988;49.000;21.242;2024-03-08T07:23:52;9.13;;;7.60;;
57573;SDS011;68988;49.000;21.242;2024-03-08T07:26:26;8.65;;;7.30;;
57573;SDS011;68988;49.000;21.242;2024-03-08T07:28:51;10.02;;;7.00;;
57573;SDS011;68988;49.000;21.242;2024-03-08T07:31:16;8.13;;;7.45;;
57573;SDS011;68988;49.000;21.242;2024-03-08T07:33:51;7.72;;;6.88;;
57573;SDS011;68988;49.000;21.242;2024-03-08T07:36:18;7.60;;;7.00;;
57573;SDS011;68988;49.000;21.242;2024-03-08T07:38:43;7.78;;;7.15;;
57573;SDS011;68988;49.000;21.242;2024-03-08T07:41:11;10.55;;;6.97;;
57573;SDS011;68988;49.000;21.242;2024-03-08T07:43:37;7.72;;;7.03;;
57573;SDS011;68988;49.000;21.242;2024-03-08T07:46:03;9.05;;;6.85;;
57573;SDS011;68988;49.000;21.242;2024-03-08T07:48:28;7.38;;;6.68;;
57573;SDS011;68988;49.000;21.242;2024-03-08T07:50:55;7.10;;;6.57;;
57573;SDS011;68988;49.000;21.242;2024-03-08T07:53:21;7.78;;;6.85;;
57573;SDS011;68988;49.000;21.242;2024-03-08T07:55:46;7.03;;;6.53;;
57573;SDS011;68988;49.000;21.242;2024-03-08T07:58:11;7.57;;;6.95;;
57573;SDS011;68988;49.000;21.242;2024-03-08T08:00:38;7.35;;;6.68;;
57573;SDS011;68988;49.000;21.242;2024-03-08T08:03:04;7.55;;;7.03;;
57573;SDS011;68988;49.000;21.242;2024-03-08T08:05:30;7.00;;;6.60;;
57573;SDS011;68988;49.000;21.242;2024-03-08T08:08:00;6.93;;;6.43;;
57573;SDS011;68988;49.000;21.242;2024-03-08T08:10:28;7.13;;;6.40;;
57573;SDS011;68988;49.000;21.242;2024-03-08T08:12:53;7.30;;;6.78;;
57573;SDS011;68988;49.000;21.242;2024-03-08T08:15:19;16.38;;;7.05;;
57573;SDS011;68988;49.000;21.242;2024-03-08T08:17:44;7.03;;;6.53;;
57573;SDS011;68988;49.000;21.242;2024-03-08T08:20:11;7.45;;;6.95;;
57573;SDS011;68988;49.000;21.242;2024-03-08T08:22:38;6.80;;;6.30;;
57573;SDS011;68988;49.000;21.242;2024-03-08T08:25:08;12.10;;;6.45;;
57573;SDS011;68988;49.000;21.242;2024-03-08T08:27:33;6.43;;;5.93;;
57573;SDS011;68988;49.000;21.242;2024-03-08T08:29:59;7.72;;;6.43;;
57573;SDS011;68988;49.000;21.242;2024-03-08T08:32:25;7.57;;;5.97;;
57573;SDS011;68988;49.000;21.242;2024-03-08T08:34:51;6.60;;;6.10;;
57573;SDS011;68988;49.000;21.242;2024-03-08T08:37:16;9.40;;;6.28;;
57573;SDS011;68988;49.000;21.242;2024-03-08T08:39:42;6.70;;;6.20;;
57573;SDS011;68988;49.000;21.242;2024-03-08T08:42:07;7.00;;;6.38;;
57573;SDS011;68988;49.000;21.242;2024-03-08T08:44:34;8.30;;;6.50;;
57573;SDS011;68988;49.000;21.242;2024-03-08T08:47:00;7.00;;;6.43;;
57573;SDS011;68988;49.000;21.242;2024-03-08T08:49:26;6.72;;;6.20;;
57573;SDS011;68988;49.000;21.242;2024-03-08T08:51:52;6.85;;;6.13;;
57573;SDS011;68988;49.000;21.242;2024-03-08T08:54:17;8.00;;;6.20;;
57573;SDS011;68988;49.000;21.242;2024-03-08T08:56:43;10.77;;;6.20;;
57573;SDS011;68988;49.000;21.242;2024-03-08T08:59:09;9.07;;;6.18;;
57573;SDS011;68988;49.000;21.242;2024-03-08T09:01:35;8.00;;;6.45;;
57573;SDS011;68988;49.000;21.242;2024-03-08T09:04:00;8.02;;;6.18;;
57573;SDS011;68988;49.000;21.242;2024-03-08T09:06:25;6.80;;;5.82;;
57573;SDS011;68988;49.000;21.242;2024-03-08T09:08:51;8.70;;;6.22;;
57573;SDS011;68988;49.000;21.242;2024-03-08T09:11:16;12.32;;;6.28;;
57573;SDS011;68988;49.000;21.242;2024-03-08T09:13:44;8.55;;;6.38;;
57573;SDS011;68988;49.000;21.242;2024-03-08T09:16:11;10.48;;;6.40;;
57573;SDS011;68988;49.000;21.242;2024-03-08T09:18:36;8.20;;;5.57;;
57573;SDS011;68988;49.000;21.242;2024-03-08T09:21:02;21.65;;;6.45;;
57573;SDS011;68988;49.000;21.242;2024-03-08T09:23:28;12.50;;;5.68;;
57573;SDS011;68988;49.000;21.242;2024-03-08T09:25:58;13.20;;;5.93;;
57573;SDS011;68988;49.000;21.242;2024-03-08T09:28:23;22.02;;;6.10;;
57573;SDS011;68988;49.000;21.242;2024-03-08T09:30:49;6.63;;;5.43;;
57573;SDS011;68988;49.000;21.242;2024-03-08T09:33:15;16.75;;;5.85;;
57573;SDS011;68988;49.000;21.242;2024-03-08T09:35:44;9.10;;;5.97;;
57573;SDS011;68988;49.000;21.242;2024-03-08T09:38:13;8.48;;;5.97;;
57573;SDS011;68988;49.000;21.242;2024-03-08T09:40:42;6.35;;;5.88;;
57573;SDS011;68988;49.000;21.242;2024-03-08T09:43:09;13.48;;;5.70;;
57573;SDS011;68988;49.000;21.242;2024-03-08T09:45:36;8.07;;;6.05;;
57573;SDS011;68988;49.000;21.242;2024-03-08T09:48:06;8.98;;;5.90;;
57573;SDS011;68988;49.000;21.242;2024-03-08T09:50:37;9.38;;;5.75;;
57573;SDS011;68988;49.000;21.242;2024-03-08T09:53:03;9.73;;;5.53;;
57573;SDS011;68988;49.000;21.242;2024-03-08T09:55:29;13.77;;;5.78;;
57573;SDS011;68988;49.000;21.242;2024-03-08T09:57:59;11.18;;;6.80;;
57573;SDS011;68988;49.000;21.242;2024-03-08T10:00:45;7.30;;;6.57;;
57573;SDS011;68988;49.000;21.242;2024-03-08T10:03:11;8.65;;;6.60;;
57573;SDS011;68988;49.000;21.242;2024-03-08T10:05:39;14.52;;;6.05;;
57573;SDS011;68988;49.000;21.242;2024-03-08T10:08:05;7.57;;;6.22;;
57573;SDS011;68988;49.000;21.242;2024-03-08T10:10:33;7.32;;;6.20;;
57573;SDS011;68988;49.000;21.242;2024-03-08T10:12:59;14.40;;;6.45;;
57573;SDS011;68988;49.000;21.242;2024-03-08T10:15:26;7.03;;;6.13;;
57573;SDS011;68988;49.000;21.242;2024-03-08T10:17:57;6.30;;;5.82;;
57573;SDS011;68988;49.000;21.242;2024-03-08T10:20:23;7.18;;;6.45;;
57573;SDS011;68988;49.000;21.242;2024-03-08T10:22:49;6.55;;;5.95;;
57573;SDS011;68988;49.000;21.242;2024-03-08T10:25:14;7.05;;;6.15;;
57573;SDS011;68988;49.000;21.242;2024-03-08T10:27:41;7.90;;;6.28;;
57573;SDS011;68988;49.000;21.242;2024-03-08T10:30:10;11.05;;;6.50;;
57573;SDS011;68988;49.000;21.242;2024-03-08T10:32:39;10.30;;;6.85;;
57573;SDS011;68988;49.000;21.242;2024-03-08T10:35:06;11.18;;;6.28;;
57573;SDS011;68988;49.000;21.242;2024-03-08T10:37:33;20.67;;;6.30;;
57573;SDS011;68988;49.000;21.242;2024-03-08T10:40:12;9.30;;;6.30;;
57573;SDS011;68988;49.000;21.242;2024-03-08T10:43:00;6.45;;;5.90;;
57573;SDS011;68988;49.000;21.242;2024-03-08T10:45:29;20.90;;;5.95;;
57573;SDS011;68988;49.000;21.242;2024-03-08T10:50:57;9.45;;;6.22;;
57573;SDS011;68988;49.000;21.242;2024-03-08T10:53:26;8.27;;;6.18;;
57573;SDS011;68988;49.000;21.242;2024-03-08T10:55:52;7.65;;;5.97;;
57573;SDS011;68988;49.000;21.242;2024-03-08T10:58:22;8.82;;;6.13;;
57573;SDS011;68988;49.000;21.242;2024-03-08T11:06:16;8.98;;;6.07;;
57573;SDS011;68988;49.000;21.242;2024-03-08T11:08:57;9.63;;;5.95;;
57573;SDS011;68988;49.000;21.242;2024-03-08T11:11:32;8.68;;;5.97;;
57573;SDS011;68988;49.000;21.242;2024-03-08T11:14:00;9.48;;;5.82;;
57573;SDS011;68988;49.000;21.242;2024-03-08T11:19:38;6.22;;;5.70;;
57573;SDS011;68988;49.000;21.242;2024-03-08T11:21:44;9.15;;;6.20;;
57573;SDS011;68988;49.000;21.242;2024-03-08T11:24:13;10.85;;;6.03;;
57573;SDS011;68988;49.000;21.242;2024-03-08T11:26:39;5.70;;;5.30;;
57573;SDS011;68988;49.000;21.242;2024-03-08T11:31:52;8.57;;;5.63;;
57573;SDS011;68988;49.000;21.242;2024-03-08T11:34:28;6.70;;;6.10;;
57573;SDS011;68988;49.000;21.242;2024-03-08T11:36:54;6.63;;;5.68;;
57573;SDS011;68988;49.000;21.242;2024-03-08T11:39:21;6.30;;;5.72;;
57573;SDS011;68988;49.000;21.242;2024-03-08T11:41:49;7.28;;;5.10;;
57573;SDS011;68988;49.000;21.242;2024-03-08T11:44:14;6.00;;;5.47;;
57573;SDS011;68988;49.000;21.242;2024-03-08T11:46:42;9.52;;;5.35;;
57573;SDS011;68988;49.000;21.242;2024-03-08T11:49:11;6.60;;;5.82;;
57573;SDS011;68988;49.000;21.242;2024-03-08T11:51:37;11.60;;;5.55;;
57573;SDS011;68988;49.000;21.242;2024-03-08T11:54:03;11.82;;;6.28;;
57573;SDS011;68988;49.000;21.242;2024-03-08T11:56:28;6.32;;;5.78;;
57573;SDS011;68988;49.000;21.242;2024-03-08T11:58:54;8.10;;;5.82;;
57573;SDS011;68988;49.000;21.242;2024-03-08T12:01:24;13.57;;;5.60;;
57573;SDS011;68988;49.000;21.242;2024-03-08T12:03:53;16.10;;;6.13;;
57573;SDS011;68988;49.000;21.242;2024-03-08T12:06:20;10.10;;;6.28;;
57573;SDS011;68988;49.000;21.242;2024-03-08T12:08:46;5.93;;;5.30;;
57573;SDS011;68988;49.000;21.242;2024-03-08T12:11:15;7.97;;;5.60;;
57573;SDS011;68988;49.000;21.242;2024-03-08T12:13:44;6.85;;;5.80;;
57573;SDS011;68988;49.000;21.242;2024-03-08T12:16:11;10.73;;;5.60;;
57573;SDS011;68988;49.000;21.242;2024-03-08T12:18:38;6.30;;;5.55;;
57573;SDS011;68988;49.000;21.242;2024-03-08T12:21:07;8.77;;;5.18;;
57573;SDS011;68988;49.000;21.242;2024-03-08T12:23:34;6.13;;;5.60;;
57573;SDS011;68988;49.000;21.242;2024-03-08T12:26:10;5.68;;;5.28;;
57573;SDS011;68988;49.000;21.242;2024-03-08T12:28:38;8.40;;;5.65;;
57573;SDS011;68988;49.000;21.242;2024-03-08T12:31:06;6.13;;;5.72;;
57573;SDS011;68988;49.000;21.242;2024-03-08T12:33:35;6.60;;;6.00;;
57573;SDS011;68988;49.000;21.242;2024-03-08T12:36:24;6.90;;;5.43;;
57573;SDS011;68988;49.000;21.242;2024-03-08T12:38:50;6.78;;;5.45;;
57573;SDS011;68988;49.000;21.242;2024-03-08T12:41:16;7.13;;;5.82;;
57573;SDS011;68988;49.000;21.242;2024-03-08T12:43:43;8.55;;;6.03;;
57573;SDS011;68988;49.000;21.242;2024-03-08T12:46:16;10.95;;;5.57;;
57573;SDS011;68988;49.000;21.242;2024-03-08T12:48:42;9.50;;;5.63;;
57573;SDS011;68988;49.000;21.242;2024-03-08T12:51:12;5.80;;;5.20;;
57573;SDS011;68988;49.000;21.242;2024-03-08T12:53:38;6.68;;;5.28;;
57573;SDS011;68988;49.000;21.242;2024-03-08T12:56:05;6.97;;;5.15;;
57573;SDS011;68988;49.000;21.242;2024-03-08T12:58:33;10.52;;;5.38;;
57573;SDS011;68988;49.000;21.242;2024-03-08T13:01:01;5.82;;;5.22;;
57573;SDS011;68988;49.000;21.242;2024-03-08T13:03:29;5.60;;;5.07;;
57573;SDS011;68988;49.000;21.242;2024-03-08T13:05:54;5.93;;;5.43;;
57573;SDS011;68988;49.000;21.242;2024-03-08T13:08:22;12.57;;;5.30;;
57573;SDS011;68988;49.000;21.242;2024-03-08T13:10:49;8.23;;;5.45;;
57573;SDS011;68988;49.000;21.242;2024-03-08T13:13:16;6.65;;;5.65;;
57573;SDS011;68988;49.000;21.242;2024-03-08T13:15:42;7.65;;;5.82;;
57573;SDS011;68988;49.000;21.242;2024-03-08T13:18:07;6.45;;;4.93;;
57573;SDS011;68988;49.000;21.242;2024-03-08T13:20:34;10.88;;;4.90;;
57573;SDS011;68988;49.000;21.242;2024-03-08T13:23:02;5.15;;;4.75;;
57573;SDS011;68988;49.000;21.242;2024-03-08T13:25:29;6.30;;;5.72;;
57573;SDS011;68988;49.000;21.242;2024-03-08T13:27:55;6.05;;;5.15;;
57573;SDS011;68988;49.000;21.242;2024-03-08T13:30:22;8.88;;;5.28;;
57573;SDS011;68988;49.000;21.242;2024-03-08T13:32:51;6.68;;;5.43;;
57573;SDS011;68988;49.000;21.242;2024-03-08T13:35:16;6.05;;;5.55;;
57573;SDS011;68988;49.000;21.242;2024-03-08T13:37:49;8.00;;;5.13;;
57573;SDS011;68988;49.000;21.242;2024-03-08T13:40:14;5.45;;;5.05;;
57573;SDS011;68988;49.000;21.242;2024-03-08T13:42:43;7.03;;;4.95;;
57573;SDS011;68988;49.000;21.242;2024-03-08T13:45:09;8.93;;;5.55;;
57573;SDS011;68988;49.000;21.242;2024-03-08T13:47:38;9.38;;;5.47;;
57573;SDS011;68988;49.000;21.242;2024-03-08T13:50:07;9.43;;;4.97;;
57573;SDS011;68988;49.000;21.242;2024-03-08T13:52:37;10.50;;;5.80;;
57573;SDS011;68988;49.000;21.242;2024-03-08T13:55:05;5.63;;;5.22;;
57573;SDS011;68988;49.000;21.242;2024-03-08T13:57:34;7.93;;;5.43;;
57573;SDS011;68988;49.000;21.242;2024-03-08T14:00:00;9.13;;;5.10;;
57573;SDS011;68988;49.000;21.242;2024-03-08T14:02:25;9.40;;;5.35;;
57573;SDS011;68988;49.000;21.242;2024-03-08T14:04:56;5.70;;;5.30;;
57573;SDS011;68988;49.000;21.242;2024-03-08T14:07:22;6.07;;;5.43;;
57573;SDS011;68988;49.000;21.242;2024-03-08T14:09:48;6.13;;;5.53;;
57573;SDS011;68988;49.000;21.242;2024-03-08T14:12:14;7.00;;;4.78;;
57573;SDS011;68988;49.000;21.242;2024-03-08T14:14:43;8.63;;;4.97;;
57573;SDS011;68988;49.000;21.242;2024-03-08T14:17:09;9.50;;;5.07;;
57573;SDS011;68988;49.000;21.242;2024-03-08T14:19:36;7.35;;;5.45;;
57573;SDS011;68988;49.000;21.242;2024-03-08T14:22:04;5.90;;;5.40;;
57573;SDS011;68988;49.000;21.242;2024-03-08T14:24:30;6.57;;;5.55;;
57573;SDS011;68988;49.000;21.242;2024-03-08T14:26:56;5.15;;;4.75;;
57573;SDS011;68988;49.000;21.242;2024-03-08T14:29:24;5.40;;;4.88;;
57573;SDS011;68988;49.000;21.242;2024-03-08T14:31:54;8.57;;;5.53;;
57573;SDS011;68988;49.000;21.242;2024-03-08T14:34:22;6.10;;;5.40;;
57573;SDS011;68988;49.000;21.242;2024-03-08T14:36:51;5.75;;;5.22;;
57573;SDS011;68988;49.000;21.242;2024-03-08T14:39:16;5.32;;;4.82;;
57573;SDS011;68988;49.000;21.242;2024-03-08T14:41:46;6.32;;;5.07;;
57573;SDS011;68988;49.000;21.242;2024-03-08T14:44:12;10.38;;;5.25;;
57573;SDS011;68988;49.000;21.242;2024-03-08T14:46:37;7.13;;;5.72;;